createdAt,value
2023-01-29T00:01:41.812Z,44.28
2023-01-29T00:04:44.633Z,37.08
2023-01-29T00:07:47.185Z,46.13
2023-01-29T00:10:49.887Z,37.43
2023-01-29T00:13:53.206Z,40.60
2023-01-29T00:16:55.836Z,40.75
2023-01-29T00:19:58.660Z,46.13
2023-01-29T00:23:01.222Z,41.38
2023-01-29T00:26:03.918Z,41.13
2023-01-29T00:29:06.636Z,38.93
2023-01-29T00:32:09.369Z,37.08
2023-01-29T00:35:12.979Z,34.67
2023-01-29T00:38:15.615Z,37.78
2023-01-29T00:41:36.745Z,36.57
2023-01-29T00:44:57.693Z,41.37
2023-01-29T00:48:00.282Z,37.85
2023-01-29T00:51:03.560Z,39.03
2023-01-29T00:54:07.046Z,40.15
2023-01-29T00:57:09.666Z,35.97
2023-01-29T01:00:16.405Z,39.27
2023-01-29T01:03:19.221Z,36.45
2023-01-29T01:06:23.102Z,34.72
2023-01-29T01:09:48.756Z,31.55
2023-01-29T01:13:00.122Z,38.30
2023-01-29T01:16:02.848Z,33.73
2023-01-29T01:19:05.770Z,39.72
2023-01-29T01:22:08.420Z,37.28
2023-01-29T01:25:11.023Z,35.88
2023-01-29T01:28:13.815Z,33.90
2023-01-29T01:31:16.555Z,38.77
2023-01-29T01:34:19.770Z,36.60
2023-01-29T01:37:22.568Z,31.00
2023-01-29T01:40:26.259Z,32.08
2023-01-29T01:43:28.836Z,34.40
2023-01-29T01:46:34.665Z,31.60
2023-01-29T01:49:37.203Z,29.13
2023-01-29T01:52:44.197Z,32.30
2023-01-29T01:55:53.474Z,32.97
2023-01-29T01:58:58.565Z,28.67
2023-01-29T02:02:19.762Z,29.40
2023-01-29T02:05:41.235Z,28.98
2023-01-29T02:09:25.211Z,29.75
2023-01-29T02:12:31.260Z,26.67
2023-01-29T02:15:34.226Z,32.87
2023-01-29T02:18:39.177Z,31.97
2023-01-29T02:21:44.571Z,28.10
2023-01-29T02:25:24.444Z,23.67
2023-01-29T02:28:49.072Z,27.17
2023-01-29T02:32:08.370Z,26.67
2023-01-29T02:35:34.749Z,23.10
2023-01-29T02:39:04.602Z,28.98
2023-01-29T02:42:16.831Z,27.17
2023-01-29T02:45:27.454Z,26.70
2023-01-29T02:48:49.158Z,27.40
2023-01-29T02:52:03.397Z,30.53
2023-01-29T02:55:19.824Z,23.05
2023-01-29T02:58:31.602Z,21.70
2023-01-29T03:01:45.249Z,20.83
2023-01-29T03:04:53.300Z,27.87
2023-01-29T03:08:00.600Z,28.83
2023-01-29T03:11:13.695Z,23.73
2023-01-29T03:14:23.404Z,27.15
2023-01-29T03:17:31.761Z,25.55
2023-01-29T03:20:38.375Z,30.97
2023-01-29T03:24:00.910Z,33.13
2023-01-29T03:27:26.955Z,27.95
2023-01-29T03:30:51.437Z,28.50
2023-01-29T03:34:24.282Z,32.13
2023-01-29T03:37:26.830Z,24.20
2023-01-29T03:40:35.406Z,29.17
2023-01-29T03:43:58.900Z,29.42
2023-01-29T03:47:18.891Z,30.45
2023-01-29T03:50:33.565Z,27.52
2023-01-29T03:54:18.742Z,36.83
2023-01-29T03:57:46.907Z,31.37
2023-01-29T04:00:58.864Z,26.58
2023-01-29T04:04:18.445Z,32.60
2023-01-29T04:07:24.780Z,28.63
2023-01-29T04:10:39.095Z,23.93
2023-01-29T04:13:43.866Z,29.77
2023-01-29T04:16:50.089Z,28.30
2023-01-29T04:20:07.237Z,31.95
2023-01-29T04:23:26.072Z,31.95
2023-01-29T04:26:47.801Z,24.30
2023-01-29T04:30:02.591Z,25.27
2023-01-29T04:33:22.412Z,26.33
2023-01-29T04:36:41.609Z,22.88
2023-01-29T04:39:59.832Z,21.95
2023-01-29T04:43:09.073Z,15.90
2023-01-29T04:46:27.693Z,15.47
2023-01-29T04:49:43.522Z,15.85
2023-01-29T04:52:50.974Z,13.57
2023-01-29T04:56:01.279Z,15.38
2023-01-29T04:59:09.564Z,14.80
2023-01-29T05:02:12.832Z,19.37
2023-01-29T05:05:18.352Z,23.80
2023-01-29T05:11:26.513Z,16.10
2023-01-29T05:14:30.996Z,17.33
2023-01-29T05:17:33.616Z,15.90
2023-01-29T05:20:39.370Z,16.88
2023-01-29T05:23:53.140Z,19.95
2023-01-29T05:27:14.158Z,20.35
2023-01-29T05:30:17.146Z,15.83
2023-01-29T05:33:31.086Z,14.57
2023-01-29T05:36:33.665Z,11.27
2023-01-29T05:39:36.362Z,14.20
2023-01-29T05:42:38.908Z,13.60
2023-01-29T05:45:41.526Z,15.93
2023-01-29T05:48:44.170Z,12.73
2023-01-29T05:51:46.896Z,13.50
2023-01-29T05:54:49.414Z,15.45
2023-01-29T05:57:51.976Z,13.00
2023-01-29T06:00:54.507Z,13.20
2023-01-29T06:03:56.990Z,16.47
2023-01-29T06:06:59.642Z,14.55
2023-01-29T06:10:03.553Z,13.25
2023-01-29T06:13:07.113Z,12.32
2023-01-29T06:16:11.242Z,15.67
2023-01-29T06:19:13.892Z,10.37
2023-01-29T06:22:16.496Z,11.45
2023-01-29T06:25:19.090Z,14.45
2023-01-29T06:28:21.612Z,15.13
2023-01-29T06:31:37.912Z,14.70
2023-01-29T06:34:41.250Z,14.33
2023-01-29T06:37:43.841Z,13.82
2023-01-29T06:40:46.354Z,17.70
2023-01-29T06:43:48.953Z,16.13
2023-01-29T06:46:51.565Z,16.00
2023-01-29T06:49:54.153Z,14.83
2023-01-29T06:52:56.719Z,17.35
2023-01-29T06:55:59.354Z,13.77
2023-01-29T06:59:01.968Z,13.70
2023-01-29T07:02:04.708Z,10.90
2023-01-29T07:05:07.615Z,13.03
2023-01-29T07:08:10.156Z,12.45
2023-01-29T07:11:13.110Z,7.80
2023-01-29T07:14:15.633Z,9.93
2023-01-29T07:17:18.177Z,11.80
2023-01-29T07:20:21.338Z,13.20
2023-01-29T07:23:24.061Z,12.05
2023-01-29T07:26:26.754Z,11.52
2023-01-29T07:29:29.283Z,12.85
2023-01-29T07:32:31.890Z,13.07
2023-01-29T07:35:41.870Z,9.93
2023-01-29T07:38:44.355Z,9.15
2023-01-29T07:41:46.899Z,10.05
2023-01-29T07:44:52.415Z,8.95
2023-01-29T07:47:55.876Z,11.03
2023-01-29T07:50:59.220Z,9.70
2023-01-29T07:54:01.705Z,9.63
2023-01-29T07:57:04.236Z,10.95
2023-01-29T08:00:07.227Z,9.23
2023-01-29T08:03:17.429Z,9.43
2023-01-29T08:06:20.302Z,10.73
2023-01-29T08:09:22.797Z,10.00
2023-01-29T08:12:25.454Z,13.48
2023-01-29T08:15:28.557Z,11.85
2023-01-29T08:18:31.702Z,11.17
2023-01-29T08:21:34.298Z,6.60
2023-01-29T08:24:47.931Z,13.60
2023-01-29T08:27:58.110Z,7.53
2023-01-29T08:31:00.757Z,11.25
2023-01-29T08:34:03.409Z,10.63
2023-01-29T08:37:06.443Z,11.10
2023-01-29T08:40:11.044Z,8.43
2023-01-29T08:43:14.424Z,10.45
2023-01-29T08:46:17.013Z,24.13
2023-01-29T08:49:19.787Z,11.37
2023-01-29T08:52:22.560Z,7.53
2023-01-29T08:55:25.945Z,8.65
2023-01-29T08:58:28.564Z,11.50
2023-01-29T09:01:31.208Z,8.57
2023-01-29T09:04:33.719Z,9.43
2023-01-29T09:07:36.713Z,8.77
2023-01-29T09:10:39.467Z,9.93
2023-01-29T09:13:42.100Z,9.65
2023-01-29T09:16:44.660Z,14.45
2023-01-29T09:19:47.276Z,10.20
2023-01-29T09:22:52.116Z,12.13
2023-01-29T09:25:54.745Z,8.63
2023-01-29T09:28:57.288Z,14.55
2023-01-29T09:31:59.885Z,11.30
2023-01-29T09:35:02.499Z,14.13
2023-01-29T09:38:10.469Z,12.40
2023-01-29T09:41:40.427Z,12.90
2023-01-29T09:45:07.429Z,14.98
2023-01-29T09:48:12.290Z,13.30
2023-01-29T09:51:29.377Z,10.90
2023-01-29T09:54:50.779Z,11.63
2023-01-29T09:57:57.130Z,10.32
2023-01-29T10:01:19.933Z,10.73
2023-01-29T10:04:55.279Z,10.10
2023-01-29T10:08:35.469Z,16.27
2023-01-29T10:12:11.807Z,14.83
2023-01-29T10:15:28.576Z,17.00
2023-01-29T10:18:56.950Z,27.85
2023-01-29T10:22:13.065Z,29.58
2023-01-29T10:25:21.063Z,17.13
2023-01-29T10:28:29.459Z,15.47
2023-01-29T10:31:34.527Z,17.27
2023-01-29T10:34:42.685Z,16.52
2023-01-29T10:37:45.262Z,15.05
2023-01-29T10:40:56.243Z,13.23
2023-01-29T10:44:15.118Z,11.33
2023-01-29T10:47:32.785Z,11.98
2023-01-29T10:50:50.731Z,18.63
2023-01-29T10:54:02.293Z,14.82
2023-01-29T10:57:18.433Z,9.10
2023-01-29T11:00:30.630Z,10.73
2023-01-29T11:03:34.322Z,12.05
2023-01-29T11:06:37.218Z,15.75
2023-01-29T11:10:00.987Z,12.10
2023-01-29T11:13:05.566Z,11.87
2023-01-29T11:16:09.465Z,10.80
2023-01-29T11:19:12.075Z,11.95
2023-01-29T11:22:20.334Z,16.48
2023-01-29T11:25:22.961Z,14.65
2023-01-29T11:28:45.858Z,12.07
2023-01-29T11:31:48.917Z,9.93
2023-01-29T11:35:06.710Z,9.27
2023-01-29T11:38:25.510Z,8.55
2023-01-29T11:41:28.118Z,9.50
2023-01-29T11:44:33.365Z,10.00
2023-01-29T11:47:36.025Z,11.90
2023-01-29T11:50:38.566Z,10.85
2023-01-29T11:53:46.569Z,12.43
2023-01-29T11:56:49.405Z,19.67
2023-01-29T11:59:53.518Z,66.97
2023-01-29T12:03:15.785Z,27.57
2023-01-29T12:06:31.735Z,15.82
2023-01-29T12:09:34.391Z,12.93
2023-01-29T12:12:42.195Z,12.13
2023-01-29T12:15:44.850Z,30.37
2023-01-29T12:18:55.740Z,14.67
2023-01-29T12:22:04.240Z,16.60
2023-01-29T12:25:23.129Z,13.80
2023-01-29T12:28:37.890Z,13.48
2023-01-29T12:31:43.666Z,17.33
2023-01-29T12:34:59.183Z,16.87
2023-01-29T12:38:10.453Z,20.60
2023-01-29T12:41:39.215Z,16.67
2023-01-29T12:44:48.639Z,13.60
2023-01-29T12:47:57.476Z,14.37
2023-01-29T12:51:39.163Z,15.20
2023-01-29T12:54:55.042Z,14.13
2023-01-29T12:58:05.568Z,15.35
2023-01-29T13:01:16.595Z,20.08
2023-01-29T13:04:42.508Z,22.23
2023-01-29T13:07:52.279Z,15.43
2023-01-29T13:10:56.368Z,29.60
2023-01-29T13:14:06.656Z,26.00
2023-01-29T13:17:34.556Z,75.03
2023-01-29T13:20:37.588Z,16.47
2023-01-29T13:23:52.476Z,27.03
2023-01-29T13:26:55.068Z,19.13
2023-01-29T13:29:58.005Z,21.02
2023-01-29T13:33:10.330Z,14.07
2023-01-29T13:36:18.578Z,12.20
2023-01-29T13:39:37.587Z,13.77
2023-01-29T13:42:48.642Z,13.90
2023-01-29T13:45:53.015Z,16.98
2023-01-29T13:48:58.316Z,11.95
2023-01-29T13:52:16.369Z,21.00
2023-01-29T13:55:19.335Z,25.33
2023-01-29T13:58:31.420Z,13.82
2023-01-29T14:01:49.303Z,15.45
2023-01-29T14:04:52.724Z,10.73
2023-01-29T14:08:25.908Z,12.83
2023-01-29T14:11:34.807Z,10.60
2023-01-29T14:14:49.477Z,27.10
2023-01-29T14:17:59.824Z,17.17
2023-01-29T14:21:14.809Z,15.88
2023-01-29T14:24:23.379Z,14.77
2023-01-29T14:27:26.188Z,21.93
2023-01-29T14:30:34.607Z,20.08
2023-01-29T14:33:43.410Z,13.43
2023-01-29T14:36:55.343Z,12.50
2023-01-29T14:40:00.350Z,11.53
2023-01-29T14:43:20.087Z,10.30
2023-01-29T14:46:35.294Z,17.48
2023-01-29T14:49:54.485Z,14.82
2023-01-29T14:53:40.291Z,22.23
2023-01-29T14:56:58.597Z,11.23
2023-01-29T15:00:06.425Z,17.70
2023-01-29T15:03:37.559Z,21.83
2023-01-29T15:07:15.014Z,18.88
2023-01-29T15:10:23.385Z,18.98
2023-01-29T15:13:38.271Z,21.60
2023-01-29T15:16:46.681Z,11.13
2023-01-29T15:19:49.856Z,15.98
2023-01-29T15:22:52.377Z,45.22
2023-01-29T15:26:01.843Z,28.73
2023-01-29T15:29:06.030Z,14.07
2023-01-29T15:32:15.697Z,10.43
2023-01-29T15:35:39.806Z,11.52
2023-01-29T15:38:42.442Z,10.68
2023-01-29T15:41:46.046Z,11.43
2023-01-29T15:44:48.872Z,13.10
2023-01-29T15:47:52.912Z,13.53
2023-01-29T15:50:56.235Z,15.60
2023-01-29T15:54:01.450Z,10.88
2023-01-29T15:57:04.208Z,11.68
2023-01-29T16:00:09.249Z,11.87
2023-01-29T16:03:15.694Z,11.53
2023-01-29T16:06:19.267Z,18.02
2023-01-29T16:09:26.261Z,13.85
2023-01-29T16:12:29.172Z,29.30
2023-01-29T16:15:38.046Z,25.07
2023-01-29T16:18:58.055Z,18.17
2023-01-29T16:22:06.096Z,16.05
2023-01-29T16:25:14.749Z,15.65
2023-01-29T16:28:18.210Z,20.75
2023-01-29T16:31:24.003Z,15.73
2023-01-29T16:34:34.613Z,22.23
2023-01-29T16:37:37.472Z,15.90
2023-01-29T16:40:55.398Z,19.35
2023-01-29T16:44:03.214Z,12.82
2023-01-29T16:47:14.363Z,13.73
2023-01-29T16:50:46.403Z,12.50
2023-01-29T16:54:26.688Z,17.50
2023-01-29T16:57:33.557Z,12.55
2023-01-29T17:00:36.448Z,18.38
2023-01-29T17:03:39.907Z,15.00
2023-01-29T17:06:47.351Z,15.23
2023-01-29T17:09:54.362Z,17.17
2023-01-29T17:13:02.496Z,18.77
2023-01-29T17:16:49.036Z,14.50
2023-01-29T17:19:51.771Z,17.17
2023-01-29T17:22:54.580Z,11.87
2023-01-29T17:25:57.367Z,12.73
2023-01-29T17:29:00.076Z,14.48
2023-01-29T17:32:02.937Z,13.25
2023-01-29T17:35:06.701Z,15.67
2023-01-29T17:38:24.257Z,16.20
2023-01-29T17:41:30.415Z,14.43
2023-01-29T17:44:33.165Z,14.68
2023-01-29T17:47:35.964Z,15.98
2023-01-29T17:50:40.121Z,22.77
2023-01-29T17:53:58.663Z,19.80
2023-01-29T17:57:01.416Z,17.60
2023-01-29T18:00:13.628Z,19.70
2023-01-29T18:03:16.675Z,30.42
2023-01-29T18:06:28.195Z,25.60
2023-01-29T18:09:30.782Z,34.17
2023-01-29T18:12:33.454Z,32.45
2023-01-29T18:15:36.261Z,21.92
2023-01-29T18:18:39.546Z,22.40
2023-01-29T18:21:42.234Z,21.07
2023-01-29T18:24:45.109Z,19.03
2023-01-29T18:27:47.700Z,24.30
2023-01-29T18:30:50.862Z,20.10
2023-01-29T18:33:53.642Z,21.08
2023-01-29T18:36:56.406Z,15.27
2023-01-29T18:39:59.558Z,25.90
2023-01-29T18:43:03.154Z,18.98
2023-01-29T18:46:06.640Z,18.92
2023-01-29T18:49:09.447Z,17.75
2023-01-29T18:52:11.984Z,19.33
2023-01-29T18:55:14.947Z,15.63
2023-01-29T18:58:26.733Z,16.65
2023-01-29T19:01:37.384Z,17.38
2023-01-29T19:04:40.115Z,16.95
2023-01-29T19:07:42.995Z,15.77
2023-01-29T19:10:45.704Z,18.20
2023-01-29T19:13:49.918Z,19.92
2023-01-29T19:16:52.589Z,12.75
2023-01-29T19:19:56.563Z,20.30
2023-01-29T19:22:59.701Z,14.57
2023-01-29T19:26:02.571Z,16.40
2023-01-29T19:29:05.317Z,12.90
2023-01-29T19:32:09.090Z,14.35
2023-01-29T19:35:12.046Z,15.38
2023-01-29T19:38:19.336Z,19.23
2023-01-29T19:41:22.191Z,15.93
2023-01-29T19:44:25.693Z,18.17
2023-01-29T19:47:29.265Z,19.58
2023-01-29T19:50:32.192Z,21.45
2023-01-29T19:53:36.040Z,18.03
2023-01-29T19:56:39.592Z,18.77
2023-01-29T19:59:45.614Z,18.85
2023-01-29T20:02:48.633Z,20.02
2023-01-29T20:05:51.401Z,15.63
2023-01-29T20:08:54.377Z,20.27
2023-01-29T20:11:57.278Z,18.93
2023-01-29T20:14:59.910Z,18.30
2023-01-29T20:18:03.445Z,18.95
2023-01-29T20:21:15.565Z,18.08
2023-01-29T20:24:18.196Z,20.63
2023-01-29T20:27:21.131Z,20.30
2023-01-29T20:30:23.851Z,15.68
2023-01-29T20:33:26.704Z,18.00
2023-01-29T20:36:30.505Z,19.42
2023-01-29T20:39:33.446Z,15.87
2023-01-29T20:42:36.151Z,20.57
2023-01-29T20:45:42.268Z,20.67
2023-01-29T20:48:44.868Z,21.42
2023-01-29T20:51:48.713Z,19.23
2023-01-29T20:54:51.473Z,19.50
2023-01-29T20:58:06.129Z,18.90
2023-01-29T21:01:15.762Z,18.00
2023-01-29T21:04:18.570Z,21.88
2023-01-29T21:07:24.303Z,20.75
2023-01-29T21:10:27.084Z,22.57
2023-01-29T21:13:29.849Z,23.40
2023-01-29T21:16:32.703Z,21.45
2023-01-29T21:19:35.313Z,19.15
2023-01-29T21:22:38.206Z,25.67
2023-01-29T21:25:41.334Z,19.73
2023-01-29T21:28:46.076Z,20.30
2023-01-29T21:31:48.857Z,23.45
2023-01-29T21:34:52.662Z,22.25
2023-01-29T21:37:55.523Z,21.52
2023-01-29T21:41:02.670Z,22.10
2023-01-29T21:44:05.719Z,20.67
2023-01-29T21:47:14.482Z,18.48
2023-01-29T21:50:17.506Z,22.58
2023-01-29T21:53:20.593Z,22.73
2023-01-29T21:56:23.051Z,27.13
2023-01-29T21:59:25.640Z,25.53
2023-01-29T22:02:30.953Z,23.38
2023-01-29T22:05:34.229Z,24.48
2023-01-29T22:08:36.761Z,27.17
2023-01-29T22:11:41.369Z,28.97
2023-01-29T22:14:44.840Z,26.40
2023-01-29T22:17:47.436Z,25.10
2023-01-29T22:20:53.973Z,24.88
2023-01-29T22:23:56.497Z,26.20
2023-01-29T22:26:59.062Z,29.10
2023-01-29T22:30:01.642Z,25.60
2023-01-29T22:33:04.364Z,29.67
2023-01-29T22:36:07.485Z,31.98
2023-01-29T22:39:10.102Z,27.67
2023-01-29T22:42:12.658Z,23.83
2023-01-29T22:45:15.229Z,28.57
2023-01-29T22:48:17.981Z,28.20
2023-01-29T22:51:20.823Z,33.88
2023-01-29T22:54:23.334Z,27.77
2023-01-29T22:57:25.910Z,30.10
2023-01-29T23:00:28.476Z,28.83
2023-01-29T23:03:31.139Z,26.67
2023-01-29T23:06:33.692Z,32.70
2023-01-29T23:09:36.312Z,30.60
2023-01-29T23:12:38.978Z,28.53
2023-01-29T23:15:41.672Z,30.20
2023-01-29T23:18:45.261Z,30.50
2023-01-29T23:21:47.852Z,29.75
2023-01-29T23:24:50.517Z,33.20
2023-01-29T23:27:53.115Z,29.80
2023-01-29T23:30:55.804Z,28.33
2023-01-29T23:33:58.551Z,33.25
2023-01-29T23:37:01.124Z,32.50
2023-01-29T23:40:04.141Z,32.67
2023-01-29T23:43:06.782Z,57.13
2023-01-29T23:46:09.361Z,29.03
2023-01-29T23:49:12.087Z,29.92
2023-01-29T23:52:14.753Z,46.00
2023-01-29T23:55:17.264Z,34.92
2023-01-29T23:58:19.813Z,40.20
